Time;durP1;ratioP1;P1;durP2;ratioP2;P2;SDS_P1;SDS_P2;PMS_P1;PMS_P2;Temp;Humidity;BMP_temperature;BMP_pressure;BME280_temperature;BME280_humidity;BME280_pressure;Samples;Min_cycle;Max_cycle;Signal;HPM_P1;HPM_P2
2021/01/29 00:00:54;;;;;;;;;;;;;;;;;;5064394;28;20397;-79
2021/01/29 00:03:20;;;;;;;;;;;;;;;;;;5065541;28;19990;-79
2021/01/29 00:05:46;;;;;;;;;;;;;;;;;;5050959;28;19924;-79
2021/01/29 00:08:12;;;;;;;;;;;;;;;;;;5042985;28;19933;-79
2021/01/29 00:10:38;;;;;;;;;;;;;;;;;;5046226;28;19925;-79
2021/01/29 00:13:04;;;;;;;;;;;;;;;;;;5043328;28;19924;-80
2021/01/29 00:15:30;;;;;;;;;;;;;;;;;;5046863;28;19975;-79
2021/01/29 00:17:56;;;;;;;;;;;;;;;;;;5043854;28;19948;-79
2021/01/29 00:20:22;;;;;;;;;;;;;;;;;;5040062;28;19944;-80
2021/01/29 00:22:48;;;;;;;;;;;;;;;;;;5047869;28;19944;-80
2021/01/29 00:25:15;;;;;;;;;;;;;;;;;;5044404;28;20600;-80
2021/01/29 00:27:41;;;;;;;;;;;;;;;;;;5045757;28;20019;-79
2021/01/29 00:30:07;;;;;;;;;;;;;;;;;;5042568;28;19925;-79
2021/01/29 00:32:33;;;;;;;;;;;;;;;;;;5046666;28;19925;-80
2021/01/29 00:34:59;;;;;;;;;;;;;;;;;;5044642;28;19963;-79
2021/01/29 00:37:25;;;;;;;;;;;;;;;;;;5063571;28;19928;-79
2021/01/29 00:39:51;;;;;;;;;;;;;;;;;;5040833;28;19932;-79
2021/01/29 00:42:17;;;;;;;;;;;;;;;;;;5044785;28;19978;-79
2021/01/29 00:44:43;;;;;;;;;;;;;;;;;;5045740;28;19928;-78
2021/01/29 00:47:09;;;;;;;;;;;;;;;;;;5043384;28;19925;-80
2021/01/29 00:49:35;;;;;;;;;;;;;;;;;;5046516;28;19936;-80
2021/01/29 00:52:01;;;;;;;;;;;;;;;;;;5037242;28;19924;-80
2021/01/29 00:54:27;;;;;;;;;;;;;;;;;;5056765;28;20039;-81
2021/01/29 00:56:52;;;;;;;;;;;;;;;;;;5064442;28;19924;-80
2021/01/29 00:59:18;;;;;;;;;;;;;;;;;;5064936;28;19924;-79
2021/01/29 01:01:44;;;;;;;;;;;;;;;;;;5065682;28;19928;-78
2021/01/29 01:04:10;;;;;;;;;;;;;;;;;;5064170;28;20560;-78
2021/01/29 01:06:36;;;;;;;;;;;;;;;;;;5066292;28;19925;-78
2021/01/29 01:09:02;;;;;;;;;;;;;;;;;;5035525;28;20381;-78
2021/01/29 01:11:28;;;;;;;;;;;;;;;;;;5046379;28;19928;-77
2021/01/29 01:13:54;;;;;;;;;;;;;;;;;;5043710;28;20278;-78
2021/01/29 01:16:20;;;;;;;;;;;;;;;;;;5045218;28;19925;-78
2021/01/29 01:18:46;;;;;;;;;;;;;;;;;;5044898;28;20378;-81
2021/01/29 01:21:12;;;;;;;;;;;;;;;;;;5043577;28;19983;-78
2021/01/29 01:23:38;;;;;;;;;;;;;;;;;;5038859;28;19929;-78
2021/01/29 01:26:04;;;;;;;;;;;;;;;;;;5042800;28;19940;-78
2021/01/29 01:28:30;;;;;;;;;;;;;;;;;;5046039;28;19940;-79
2021/01/29 01:30:56;;;;;;;;;;;;;;;;;;5043231;28;19925;-78
2021/01/29 01:33:21;;;;;;;;;;;;;;;;;;5045380;28;19925;-78
2021/01/29 01:35:47;;;;;;;;;;;;;;;;;;5044497;28;20377;-79
2021/01/29 01:38:13;;;;;;;;;;;;;;;;;;5044394;28;19948;-78
2021/01/29 01:40:39;;;;;;;;;;;;;;;;;;5055262;28;19932;-78
2021/01/29 01:43:05;;;;;;;;;;;;;;;;;;5065771;28;19931;-79
2021/01/29 01:45:31;;;;;;;;;;;;;;;;;;5069535;28;19970;-78
2021/01/29 01:47:57;;;;;;;;;;;;;;;;;;5066584;28;19928;-78
2021/01/29 01:50:23;;;;;;;;;;;;;;;;;;5068813;28;20400;-78
2021/01/29 01:52:49;;;;;;;;;;;;;;;;;;5068577;28;19932;-78
2021/01/29 01:55:15;;;;;;;;;;;;;;;;;;5057097;28;20885;-79
2021/01/29 01:57:40;;;;;;;;;;;;;;;;;;5069891;28;19931;-78
2021/01/29 02:00:06;;;;;;;;;;;;;;;;;;5066348;28;19931;-78
2021/01/29 02:02:33;;;;;;;;;;;;;;;;;;5069305;28;19931;-78
2021/01/29 02:04:59;;;;;;;;;;;;;;;;;;5066339;28;20400;-77
2021/01/29 02:07:25;;;;;;;;;;;;;;;;;;5061159;28;19944;-78
2021/01/29 02:09:51;;;;;;;;;;;;;;;;;;5047204;28;19995;-78
2021/01/29 02:12:16;;;;;;;;;;;;;;;;;;5049461;28;20306;-78
2021/01/29 02:14:42;;;;;;;;;;;;;;;;;;5068638;28;19974;-78
2021/01/29 02:17:08;;;;;;;;;;;;;;;;;;5065809;28;19924;-78
2021/01/29 02:19:34;;;;;;;;;;;;;;;;;;5069156;28;19924;-78
2021/01/29 02:22:00;;;;;;;;;;;;;;;;;;5065483;28;19993;-78
2021/01/29 02:24:26;;;;;;;;;;;;;;;;;;5068871;28;20387;-79
2021/01/29 02:26:52;;;;;;;;;;;;;;;;;;5061011;28;19985;-78
2021/01/29 02:29:18;;;;;;;;;;;;;;;;;;5063269;28;19924;-79
2021/01/29 02:31:44;;;;;;;;;;;;;;;;;;5068404;28;19939;-78
2021/01/29 02:34:10;;;;;;;;;;;;;;;;;;5066510;28;19925;-77
2021/01/29 02:36:36;;;;;;;;;;;;;;;;;;5084072;28;19932;-78
2021/01/29 02:39:02;;;;;;;;;;;;;;;;;;5084837;28;20440;-78
2021/01/29 02:41:27;;;;;;;;;;;;;;;;;;5088718;28;19924;-79
2021/01/29 02:43:54;;;;;;;;;;;;;;;;;;5066065;28;20382;-77
2021/01/29 02:46:20;;;;;;;;;;;;;;;;;;5067068;28;19924;-79
2021/01/29 02:48:46;;;;;;;;;;;;;;;;;;5066821;28;19932;-78
2021/01/29 02:51:12;;;;;;;;;;;;;;;;;;5065257;28;19925;-80
2021/01/29 02:53:38;;;;;;;;;;;;;;;;;;5067743;28;20389;-80
2021/01/29 02:56:03;;;;;;;;;;;;;;;;;;5064814;28;19924;-79
2021/01/29 02:58:29;;;;;;;;;;;;;;;;;;5068639;28;19925;-79
2021/01/29 03:00:55;;;;;;;;;;;;;;;;;;5039602;28;19958;-79
2021/01/29 03:03:21;;;;;;;;;;;;;;;;;;5047739;28;20266;-79
2021/01/29 03:05:47;;;;;;;;;;;;;;;;;;5046637;28;19932;-80
2021/01/29 03:08:13;;;;;;;;;;;;;;;;;;5046118;28;19932;-79
2021/01/29 03:10:39;;;;;;;;;;;;;;;;;;5048952;28;19925;-79
2021/01/29 03:13:05;;;;;;;;;;;;;;;;;;5044218;28;19925;-79
2021/01/29 03:15:31;;;;;;;;;;;;;;;;;;5040702;28;19939;-78
2021/01/29 03:17:57;;;;;;;;;;;;;;;;;;5045912;28;20389;-79
2021/01/29 03:20:23;;;;;;;;;;;;;;;;;;5049435;28;19979;-81
2021/01/29 03:22:49;;;;;;;;;;;;;;;;;;5052143;28;19925;-80
2021/01/29 03:25:15;;;;;;;;;;;;;;;;;;5051989;28;19940;-79
2021/01/29 03:27:41;;;;;;;;;;;;;;;;;;5057047;28;19932;-79
2021/01/29 03:30:07;;;;;;;;;;;;;;;;;;5051295;28;19933;-80
2021/01/29 03:32:33;;;;;;;;;;;;;;;;;;5081109;28;19970;-79
2021/01/29 03:34:59;;;;;;;;;;;;;;;;;;5078861;28;19924;-80
2021/01/29 03:37:25;;;;;;;;;;;;;;;;;;5080706;28;19928;-81
2021/01/29 03:39:51;;;;;;;;;;;;;;;;;;5077397;28;19925;-81
2021/01/29 03:42:17;;;;;;;;;;;;;;;;;;5074850;28;19924;-80
2021/01/29 03:44:43;;;;;;;;;;;;;;;;;;5074602;28;19978;-79
2021/01/29 03:47:09;;;;;;;;;;;;;;;;;;5040289;28;19956;-80
2021/01/29 03:49:35;;;;;;;;;;;;;;;;;;5064689;28;19998;-79
2021/01/29 03:52:01;;;;;;;;;;;;;;;;;;5067257;28;19956;-80
2021/01/29 03:54:27;;;;;;;;;;;;;;;;;;5069321;28;19971;-80
2021/01/29 03:56:53;;;;;;;;;;;;;;;;;;5069167;28;19932;-80
2021/01/29 03:59:19;;;;;;;;;;;;;;;;;;5068978;28;20023;-80
2021/01/29 04:01:45;;;;;;;;;;;;;;;;;;5045621;28;19960;-79
2021/01/29 04:04:11;;;;;;;;;;;;;;;;;;5048037;28;19929;-80
2021/01/29 04:06:36;;;;;;;;;;;;;;;;;;5049352;28;19925;-80
2021/01/29 04:09:02;;;;;;;;;;;;;;;;;;5051397;28;19931;-80
2021/01/29 04:11:28;;;;;;;;;;;;;;;;;;5048558;28;19924;-81
2021/01/29 04:13:54;;;;;;;;;;;;;;;;;;5046001;28;19924;-80
2021/01/29 04:16:20;;;;;;;;;;;;;;;;;;5043992;28;19932;-80
2021/01/29 04:18:46;;;;;;;;;;;;;;;;;;5066261;28;19924;-79
2021/01/29 04:21:12;;;;;;;;;;;;;;;;;;5064813;28;20279;-80
2021/01/29 04:23:38;;;;;;;;;;;;;;;;;;5066880;28;19924;-81
2021/01/29 04:26:04;;;;;;;;;;;;;;;;;;5063312;28;19966;-80
2021/01/29 04:28:31;;;;;;;;;;;;;;;;;;5066568;28;20412;-80
2021/01/29 04:30:57;;;;;;;;;;;;;;;;;;5056322;28;20404;-80
2021/01/29 04:33:23;;;;;;;;;;;;;;;;;;5045253;28;19925;-80
2021/01/29 04:35:49;;;;;;;;;;;;;;;;;;5047434;28;19925;-79
2021/01/29 04:38:15;;;;;;;;;;;;;;;;;;5063947;28;20348;-80
2021/01/29 04:40:41;;;;;;;;;;;;;;;;;;5066659;28;19924;-80
2021/01/29 04:43:07;;;;;;;;;;;;;;;;;;5063162;28;20277;-80
2021/01/29 04:45:32;;;;;;;;;;;;;;;;;;5066636;28;19929;-80
2021/01/29 04:47:58;;;;;;;;;;;;;;;;;;5045338;28;20396;-80
2021/01/29 04:50:24;;;;;;;;;;;;;;;;;;5046442;28;19924;-80
2021/01/29 04:52:50;;;;;;;;;;;;;;;;;;5044774;28;19925;-80
2021/01/29 04:55:16;;;;;;;;;;;;;;;;;;5044672;28;19925;-80
2021/01/29 04:57:42;;;;;;;;;;;;;;;;;;5046147;28;19939;-80
2021/01/29 05:00:08;;;;;;;;;;;;;;;;;;5043499;28;19925;-81
2021/01/29 05:02:34;;;;;;;;;;;;;;;;;;5054371;28;19940;-80
2021/01/29 05:05:00;;;;;;;;;;;;;;;;;;5038055;28;20286;-79
2021/01/29 05:07:26;;;;;;;;;;;;;;;;;;5047020;28;19929;-80
2021/01/29 05:09:52;;;;;;;;;;;;;;;;;;5044873;28;20281;-80
2021/01/29 05:12:18;;;;;;;;;;;;;;;;;;5045815;28;19940;-81
2021/01/29 05:14:44;;;;;;;;;;;;;;;;;;5050292;28;20340;-80
2021/01/29 05:17:10;;;;;;;;;;;;;;;;;;5048431;28;19924;-80
2021/01/29 05:19:36;;;;;;;;;;;;;;;;;;5043673;28;20386;-80
2021/01/29 05:22:02;;;;;;;;;;;;;;;;;;5047366;28;19935;-80
2021/01/29 05:24:28;;;;;;;;;;;;;;;;;;5050529;28;20048;-80
2021/01/29 05:26:54;;;;;;;;;;;;;;;;;;5047963;28;20302;-80
2021/01/29 05:29:20;;;;;;;;;;;;;;;;;;5048906;28;19925;-80
2021/01/29 05:31:46;;;;;;;;;;;;;;;;;;5048924;28;19983;-80
2021/01/29 05:34:12;;;;;;;;;;;;;;;;;;5041708;28;19932;-80
2021/01/29 05:36:37;;;;;;;;;;;;;;;;;;5054189;28;19931;-80
2021/01/29 05:39:03;;;;;;;;;;;;;;;;;;5046268;28;19924;-80
2021/01/29 05:41:29;;;;;;;;;;;;;;;;;;5049561;28;19924;-80
2021/01/29 05:43:55;;;;;;;;;;;;;;;;;;5047543;28;19935;-80
2021/01/29 05:46:21;;;;;;;;;;;;;;;;;;5048947;28;19948;-80
2021/01/29 05:48:47;;;;;;;;;;;;;;;;;;5045427;28;19956;-81
2021/01/29 05:51:13;;;;;;;;;;;;;;;;;;5043852;28;20669;-81
2021/01/29 05:53:39;;;;;;;;;;;;;;;;;;5050022;28;19932;-80
2021/01/29 05:56:05;;;;;;;;;;;;;;;;;;5045785;28;19971;-80
2021/01/29 05:58:31;;;;;;;;;;;;;;;;;;5049670;28;19925;-80
2021/01/29 06:00:57;;;;;;;;;;;;;;;;;;5046754;28;20333;-81
2021/01/29 06:03:23;;;;;;;;;;;;;;;;;;5048985;28;19924;-79
2021/01/29 06:05:49;;;;;;;;;;;;;;;;;;5040383;28;20371;-80
2021/01/29 06:08:15;;;;;;;;;;;;;;;;;;5047964;28;19978;-79
2021/01/29 06:10:41;;;;;;;;;;;;;;;;;;5049285;28;20297;-79
2021/01/29 06:13:07;;;;;;;;;;;;;;;;;;5046044;28;19932;-79
2021/01/29 06:15:33;;;;;;;;;;;;;;;;;;5049787;28;19932;-78
2021/01/29 06:17:59;;;;;;;;;;;;;;;;;;5046306;28;19925;-79
2021/01/29 06:20:25;;;;;;;;;;;;;;;;;;5044714;28;20400;-79
2021/01/29 06:22:51;;;;;;;;;;;;;;;;;;5067538;28;19925;-79
2021/01/29 06:25:16;;;;;;;;;;;;;;;;;;5066559;28;20719;-79
2021/01/29 06:27:42;;;;;;;;;;;;;;;;;;5069030;28;19924;-77
2021/01/29 06:30:08;;;;;;;;;;;;;;;;;;5066050;28;19924;-79
2021/01/29 06:32:34;;;;;;;;;;;;;;;;;;5068861;28;19931;-80
2021/01/29 06:35:02;;;;;;;;;;;;;;;;;;5065142;28;20216;-79
2021/01/29 06:37:28;;;;;;;;;;;;;;;;;;5057876;28;19924;-79
2021/01/29 06:39:54;;;;;;;;;;;;;;;;;;5067240;28;20404;-78
2021/01/29 06:42:20;;;;;;;;;;;;;;;;;;5069674;28;19928;-78
2021/01/29 06:44:46;;;;;;;;;;;;;;;;;;5069112;28;19928;-78
2021/01/29 06:47:12;;;;;;;;;;;;;;;;;;5067057;28;20386;-79
2021/01/29 06:49:38;;;;;;;;;;;;;;;;;;5069092;28;19932;-79
2021/01/29 06:52:04;;;;;;;;;;;;;;;;;;5055775;28;20332;-79
2021/01/29 06:54:30;;;;;;;;;;;;;;;;;;5070095;28;19974;-79
2021/01/29 06:56:55;;;;;;;;;;;;;;;;;;5067246;28;20297;-79
2021/01/29 06:59:22;;;;;;;;;;;;;;;;;;5068793;28;19925;-80
2021/01/29 07:01:47;;;;;;;;;;;;;;;;;;5068827;28;19947;-78
2021/01/29 07:04:13;;;;;;;;;;;;;;;;;;5057523;28;19932;-79
2021/01/29 07:06:44;;;;;;;;;;;;;;;;;;5047303;28;19970;-79
2021/01/29 07:09:10;;;;;;;;;;;;;;;;;;5067088;28;19971;-78
2021/01/29 07:11:36;;;;;;;;;;;;;;;;;;5069752;28;19924;-79
2021/01/29 07:14:02;;;;;;;;;;;;;;;;;;5067136;28;19935;-79
2021/01/29 07:16:28;;;;;;;;;;;;;;;;;;5070279;28;20293;-79
2021/01/29 07:18:54;;;;;;;;;;;;;;;;;;5067564;28;19925;-79
2021/01/29 07:21:20;;;;;;;;;;;;;;;;;;5069992;28;19969;-79
2021/01/29 07:23:46;;;;;;;;;;;;;;;;;;5046388;28;19928;-79
2021/01/29 07:26:12;;;;;;;;;;;;;;;;;;5047710;28;20090;-79
2021/01/29 07:28:38;;;;;;;;;;;;;;;;;;5050134;28;19929;-80
2021/01/29 07:31:04;;;;;;;;;;;;;;;;;;5047219;28;20354;-79
2021/01/29 07:33:30;;;;;;;;;;;;;;;;;;5033485;28;19925;-79
2021/01/29 07:35:56;;;;;;;;;;;;;;;;;;5048087;28;19929;-79
2021/01/29 07:38:22;;;;;;;;;;;;;;;;;;5042509;28;19940;-79
2021/01/29 07:40:48;;;;;;;;;;;;;;;;;;5048536;28;20270;-80
2021/01/29 07:43:14;;;;;;;;;;;;;;;;;;5055997;28;19925;-79
2021/01/29 07:45:39;;;;;;;;;;;;;;;;;;5068396;28;20385;-79
2021/01/29 07:48:05;;;;;;;;;;;;;;;;;;5064294;28;19924;-79
2021/01/29 07:50:31;;;;;;;;;;;;;;;;;;5068834;28;19924;-79
2021/01/29 07:52:57;;;;;;;;;;;;;;;;;;5065400;28;19925;-79
2021/01/29 07:55:23;;;;;;;;;;;;;;;;;;5046824;28;19924;-79
2021/01/29 07:57:49;;;;;;;;;;;;;;;;;;5046694;28;20039;-79
2021/01/29 08:00:15;;;;;;;;;;;;;;;;;;5045451;28;20157;-79
2021/01/29 08:02:41;;;;;;;;;;;;;;;;;;5064301;28;19924;-81
2021/01/29 08:05:07;;;;;;;;;;;;;;;;;;5087338;28;19974;-80
2021/01/29 08:07:33;;;;;;;;;;;;;;;;;;5079337;28;19932;-79
2021/01/29 08:09:59;;;;;;;;;;;;;;;;;;5060903;28;19924;-80
2021/01/29 08:12:25;;;;;;;;;;;;;;;;;;5068726;28;19931;-79
2021/01/29 08:14:51;;;;;;;;;;;;;;;;;;5071582;28;19974;-79
2021/01/29 08:17:17;;;;;;;;;;;;;;;;;;5070896;28;20341;-78
2021/01/29 08:19:43;;;;;;;;;;;;;;;;;;5071859;28;19932;-79
2021/01/29 08:22:09;;;;;;;;;;;;;;;;;;5067375;28;19986;-79
2021/01/29 08:24:39;;;;;;;;;;;;;;;;;;5069933;28;19924;-78
2021/01/29 08:27:05;;;;;;;;;;;;;;;;;;5044366;28;19971;-79
2021/01/29 08:29:31;;;;;;;;;;;;;;;;;;5066086;28;19925;-80
2021/01/29 08:31:57;;;;;;;;;;;;;;;;;;5055455;28;19929;-79
2021/01/29 08:34:23;;;;;;;;;;;;;;;;;;5058549;28;19925;-82
2021/01/29 08:36:48;;;;;;;;;;;;;;;;;;5061308;28;19929;-79
2021/01/29 08:39:14;;;;;;;;;;;;;;;;;;5056881;28;19947;-80
2021/01/29 08:41:40;;;;;;;;;;;;;;;;;;5046394;28;19991;-81
2021/01/29 08:44:06;;;;;;;;;;;;;;;;;;5054766;28;20318;-79
2021/01/29 08:46:32;;;;;;;;;;;;;;;;;;5072234;28;19924;-80
2021/01/29 08:48:58;;;;;;;;;;;;;;;;;;5060296;28;19978;-80
2021/01/29 08:51:24;;;;;;;;;;;;;;;;;;5073189;28;19932;-79
2021/01/29 08:53:50;;;;;;;;;;;;;;;;;;5075674;28;19931;-79
2021/01/29 08:56:16;;;;;;;;;;;;;;;;;;5069643;28;19936;-80
2021/01/29 08:58:42;;;;;;;;;;;;;;;;;;5058276;28;20381;-79
2021/01/29 09:01:08;;;;;;;;;;;;;;;;;;5054781;28;19936;-79
2021/01/29 09:03:34;;;;;;;;;;;;;;;;;;5057099;28;19925;-79
2021/01/29 09:06:00;;;;;;;;;;;;;;;;;;5061298;28;19925;-79
2021/01/29 09:08:26;;;;;;;;;;;;;;;;;;5062907;28;19932;-80
2021/01/29 09:10:52;;;;;;;;;;;;;;;;;;5069736;28;19925;-81
2021/01/29 09:13:18;;;;;;;;;;;;;;;;;;5048685;28;20437;-80
2021/01/29 09:15:44;;;;;;;;;;;;;;;;;;5050234;28;19931;-79
2021/01/29 09:18:10;;;;;;;;;;;;;;;;;;5048623;28;19924;-80
2021/01/29 09:20:35;;;;;;;;;;;;;;;;;;5049620;28;19933;-80
2021/01/29 09:23:03;;;;;;;;;;;;;;;;;;5056291;28;19932;-80
2021/01/29 09:25:29;;;;;;;;;;;;;;;;;;5055469;28;19971;-80
2021/01/29 09:27:55;;;;;;;;;;;;;;;;;;5045003;28;19929;-79
2021/01/29 09:30:22;;;;;;;;;;;;;;;;;;5060737;28;19979;-80
2021/01/29 09:32:48;;;;;;;;;;;;;;;;;;5069802;28;20381;-80
2021/01/29 09:35:14;;;;;;;;;;;;;;;;;;5062179;28;20377;-80
2021/01/29 09:37:40;;;;;;;;;;;;;;;;;;5055549;28;19924;-79
2021/01/29 09:40:06;;;;;;;;;;;;;;;;;;5059486;28;19925;-80
2021/01/29 09:42:32;;;;;;;;;;;;;;;;;;5052280;28;19948;-80
2021/01/29 09:44:58;;;;;;;;;;;;;;;;;;5044629;28;20389;-79
2021/01/29 09:47:24;;;;;;;;;;;;;;;;;;5053174;28;19929;-79
2021/01/29 09:49:50;;;;;;;;;;;;;;;;;;5056511;28;20408;-79
2021/01/29 09:52:15;;;;;;;;;;;;;;;;;;5061022;28;19959;-80
2021/01/29 09:54:41;;;;;;;;;;;;;;;;;;5068018;28;19928;-79
2021/01/29 09:57:07;;;;;;;;;;;;;;;;;;5080346;28;19928;-79
2021/01/29 09:59:33;;;;;;;;;;;;;;;;;;5089157;28;19947;-79
2021/01/29 10:01:59;;;;;;;;;;;;;;;;;;5056651;28;19925;-80
2021/01/29 10:04:25;;;;;;;;;;;;;;;;;;5073356;28;19928;-79
2021/01/29 10:06:51;;;;;;;;;;;;;;;;;;5031136;28;19931;-79
2021/01/29 10:09:17;;;;;;;;;;;;;;;;;;5046598;28;20379;-80
2021/01/29 10:11:43;;;;;;;;;;;;;;;;;;5051483;28;19925;-79
2021/01/29 10:14:10;;;;;;;;;;;;;;;;;;5050524;28;19932;-80
2021/01/29 10:16:36;;;;;;;;;;;;;;;;;;5051819;28;20031;-79
2021/01/29 10:19:02;;;;;;;;;;;;;;;;;;5053781;28;19929;-79
2021/01/29 10:21:28;;;;;;;;;;;;;;;;;;5058607;28;19993;-78
2021/01/29 10:23:53;;;;;;;;;;;;;;;;;;5045570;28;19932;-79
2021/01/29 10:26:19;;;;;;;;;;;;;;;;;;5066036;28;20332;-79
2021/01/29 10:28:45;;;;;;;;;;;;;;;;;;5069491;28;20018;-78
2021/01/29 10:31:11;;;;;;;;;;;;;;;;;;5060879;28;19924;-79
2021/01/29 10:33:37;;;;;;;;;;;;;;;;;;5059049;28;19935;-80
2021/01/29 10:36:03;;;;;;;;;;;;;;;;;;5063404;28;20275;-79
2021/01/29 10:38:29;;;;;;;;;;;;;;;;;;5055147;28;19924;-79
2021/01/29 10:40:56;;;;;;;;;;;;;;;;;;5059999;28;19924;-79
2021/01/29 10:43:22;;;;;;;;;;;;;;;;;;5056811;28;20011;-78
2021/01/29 10:45:49;;;;;;;;;;;;;;;;;;5047488;28;19960;-79
2021/01/29 10:48:15;;;;;;;;;;;;;;;;;;5048303;28;20003;-78
2021/01/29 10:50:41;;;;;;;;;;;;;;;;;;5050014;28;19932;-78
2021/01/29 10:53:08;;;;;;;;;;;;;;;;;;5055449;28;19983;-79
2021/01/29 10:55:34;;;;;;;;;;;;;;;;;;5056909;28;20370;-78
2021/01/29 10:58:00;;;;;;;;;;;;;;;;;;5064823;28;19924;-78
2021/01/29 11:00:26;;;;;;;;;;;;;;;;;;5068258;28;19983;-79
2021/01/29 11:02:52;;;;;;;;;;;;;;;;;;5051761;28;19925;-79
2021/01/29 11:05:18;;;;;;;;;;;;;;;;;;5053977;28;19928;-80
2021/01/29 11:07:44;;;;;;;;;;;;;;;;;;5054928;28;19951;-78
2021/01/29 11:10:10;;;;;;;;;;;;;;;;;;5047829;28;20295;-78
2021/01/29 11:12:36;;;;;;;;;;;;;;;;;;5046547;28;20421;-77
2021/01/29 11:15:02;;;;;;;;;;;;;;;;;;5059566;28;19943;-78
2021/01/29 11:17:29;;;;;;;;;;;;;;;;;;5050426;28;19979;-78
2021/01/29 11:19:57;;;;;;;;;;;;;;;;;;5048669;28;19933;-78
2021/01/29 11:22:23;;;;;;;;;;;;;;;;;;5056122;28;19925;-76
2021/01/29 11:24:49;;;;;;;;;;;;;;;;;;5063547;28;19932;-77
2021/01/29 11:27:14;;;;;;;;;;;;;;;;;;5046822;28;20348;-77
2021/01/29 11:29:40;;;;;;;;;;;;;;;;;;5044772;28;19924;-78
2021/01/29 11:32:06;;;;;;;;;;;;;;;;;;5060871;28;20317;-78
2021/01/29 11:34:32;;;;;;;;;;;;;;;;;;5043818;28;20040;-78
2021/01/29 11:36:58;;;;;;;;;;;;;;;;;;5056044;28;19932;-79
2021/01/29 11:39:24;;;;;;;;;;;;;;;;;;5050251;28;19925;-79
2021/01/29 11:41:50;;;;;;;;;;;;;;;;;;5043915;28;19931;-77
2021/01/29 11:44:16;;;;;;;;;;;;;;;;;;5061624;28;20351;-79
2021/01/29 11:46:42;;;;;;;;;;;;;;;;;;5052532;28;20653;-79
2021/01/29 11:49:08;;;;;;;;;;;;;;;;;;5061201;28;19932;-78
2021/01/29 11:51:34;;;;;;;;;;;;;;;;;;5041855;28;20436;-79
2021/01/29 11:54:00;;;;;;;;;;;;;;;;;;5050571;28;19924;-79
2021/01/29 11:56:26;;;;;;;;;;;;;;;;;;5050410;28;19991;-78
2021/01/29 11:58:52;;;;;;;;;;;;;;;;;;5057837;28;19932;-78
2021/01/29 12:01:18;;;;;;;;;;;;;;;;;;5053777;28;19929;-78
2021/01/29 12:03:44;;;;;;;;;;;;;;;;;;5053999;28;19925;-79
2021/01/29 12:06:10;;;;;;;;;;;;;;;;;;5054564;28;19929;-79
2021/01/29 12:08:36;;;;;;;;;;;;;;;;;;5044857;28;19944;-77
2021/01/29 12:11:04;;;;;;;;;;;;;;;;;;5063283;28;19932;-78
2021/01/29 12:13:30;;;;;;;;;;;;;;;;;;5055342;28;20015;-78
2021/01/29 12:15:56;;;;;;;;;;;;;;;;;;5054648;28;19983;-79
2021/01/29 12:18:22;;;;;;;;;;;;;;;;;;5055678;28;19931;-78
2021/01/29 12:20:48;;;;;;;;;;;;;;;;;;5051397;28;19936;-77
2021/01/29 12:23:14;;;;;;;;;;;;;;;;;;5048811;28;20373;-78
2021/01/29 12:25:40;;;;;;;;;;;;;;;;;;5060503;28;19979;-78
2021/01/29 12:28:06;;;;;;;;;;;;;;;;;;5054373;28;19947;-77
2021/01/29 12:30:32;;;;;;;;;;;;;;;;;;5062362;28;19932;-77
2021/01/29 12:32:58;;;;;;;;;;;;;;;;;;5063188;28;19932;-77
2021/01/29 12:35:24;;;;;;;;;;;;;;;;;;5051886;28;19932;-78
2021/01/29 12:37:49;;;;;;;;;;;;;;;;;;5056293;28;19924;-78
2021/01/29 12:40:15;;;;;;;;;;;;;;;;;;5055662;28;19974;-78
2021/01/29 12:42:41;;;;;;;;;;;;;;;;;;5054804;28;19924;-79
2021/01/29 12:45:07;;;;;;;;;;;;;;;;;;5051798;28;19932;-78
2021/01/29 12:47:33;;;;;;;;;;;;;;;;;;5054732;28;19925;-78
2021/01/29 12:49:59;;;;;;;;;;;;;;;;;;5054090;28;19931;-79
2021/01/29 12:52:25;;;;;;;;;;;;;;;;;;5052292;28;19932;-78
2021/01/29 12:54:52;;;;;;;;;;;;;;;;;;5051010;28;19924;-78
2021/01/29 12:57:18;;;;;;;;;;;;;;;;;;5064777;28;19939;-78
2021/01/29 12:59:46;;;;;;;;;;;;;;;;;;5057358;28;20344;-79
2021/01/29 13:02:12;;;;;;;;;;;;;;;;;;5065199;28;20009;-79
2021/01/29 13:04:39;;;;;;;;;;;;;;;;;;5051259;28;20298;-78
2021/01/29 13:07:05;;;;;;;;;;;;;;;;;;5068488;28;19971;-77
2021/01/29 13:09:31;;;;;;;;;;;;;;;;;;5048356;28;19924;-77
2021/01/29 13:11:57;;;;;;;;;;;;;;;;;;5053153;28;20306;-78
2021/01/29 13:14:24;;;;;;;;;;;;;;;;;;5045085;28;19980;-78
2021/01/29 13:16:49;;;;;;;;;;;;;;;;;;5042773;28;20023;-77
2021/01/29 13:19:15;;;;;;;;;;;;;;;;;;5046609;28;19982;-80
2021/01/29 13:21:41;;;;;;;;;;;;;;;;;;5059889;28;20556;-78
2021/01/29 13:24:07;;;;;;;;;;;;;;;;;;5049774;28;19925;-79
2021/01/29 13:26:33;;;;;;;;;;;;;;;;;;5045411;28;19924;-78
2021/01/29 13:28:59;;;;;;;;;;;;;;;;;;5056660;28;19932;-78
2021/01/29 13:31:26;;;;;;;;;;;;;;;;;;5067155;28;19928;-78
2021/01/29 13:33:52;;;;;;;;;;;;;;;;;;5071944;28;19931;-79
2021/01/29 13:36:18;;;;;;;;;;;;;;;;;;5075499;28;19931;-78
2021/01/29 13:38:44;;;;;;;;;;;;;;;;;;5059317;28;19929;-79
2021/01/29 13:41:09;;;;;;;;;;;;;;;;;;5062070;28;20375;-79
2021/01/29 13:43:35;;;;;;;;;;;;;;;;;;5067936;28;19928;-78
2021/01/29 13:46:01;;;;;;;;;;;;;;;;;;5076937;28;20521;-78
2021/01/29 13:48:27;;;;;;;;;;;;;;;;;;5064315;28;19939;-79
2021/01/29 13:50:53;;;;;;;;;;;;;;;;;;5063400;28;19974;-79
2021/01/29 13:53:19;;;;;;;;;;;;;;;;;;5077054;28;19931;-79
2021/01/29 13:55:45;;;;;;;;;;;;;;;;;;5065527;28;19924;-79
2021/01/29 13:58:11;;;;;;;;;;;;;;;;;;5049822;28;19925;-79
2021/01/29 14:00:37;;;;;;;;;;;;;;;;;;5080726;28;19924;-77
2021/01/29 14:03:05;;;;;;;;;;;;;;;;;;5078738;28;20396;-78
2021/01/29 14:05:31;;;;;;;;;;;;;;;;;;5072022;28;19990;-79
2021/01/29 14:07:57;;;;;;;;;;;;;;;;;;5084179;28;19958;-79
2021/01/29 14:10:23;;;;;;;;;;;;;;;;;;5088851;28;19928;-79
2021/01/29 14:12:49;;;;;;;;;;;;;;;;;;5075089;28;22417;-78
2021/01/29 14:15:15;;;;;;;;;;;;;;;;;;5080134;28;19924;-77
2021/01/29 14:17:41;;;;;;;;;;;;;;;;;;5066045;28;19939;-79
2021/01/29 14:20:07;;;;;;;;;;;;;;;;;;5079502;28;19929;-79
2021/01/29 14:22:33;;;;;;;;;;;;;;;;;;5067598;28;19932;-79
2021/01/29 14:24:58;;;;;;;;;;;;;;;;;;5089604;28;19924;-78
2021/01/29 14:27:26;;;;;;;;;;;;;;;;;;5083186;28;19924;-79
2021/01/29 14:29:52;;;;;;;;;;;;;;;;;;5073853;28;19924;-79
2021/01/29 14:32:18;;;;;;;;;;;;;;;;;;5074166;28;20384;-79
2021/01/29 14:34:44;;;;;;;;;;;;;;;;;;5077871;28;19924;-79
2021/01/29 14:37:10;;;;;;;;;;;;;;;;;;5079346;28;19924;-78
2021/01/29 14:39:36;;;;;;;;;;;;;;;;;;5078866;28;19932;-79
2021/01/29 14:42:02;;;;;;;;;;;;;;;;;;5075929;28;19924;-79
2021/01/29 14:44:28;;;;;;;;;;;;;;;;;;5078331;28;19924;-78
2021/01/29 14:46:54;;;;;;;;;;;;;;;;;;5090456;28;19924;-78
2021/01/29 14:49:20;;;;;;;;;;;;;;;;;;5084121;28;20044;-77
2021/01/29 14:51:46;;;;;;;;;;;;;;;;;;5083016;28;20465;-78
2021/01/29 14:54:12;;;;;;;;;;;;;;;;;;5069684;28;19928;-78
2021/01/29 14:56:38;;;;;;;;;;;;;;;;;;5084996;28;20828;-78
2021/01/29 14:59:04;;;;;;;;;;;;;;;;;;5059617;28;19929;-78
2021/01/29 15:01:29;;;;;;;;;;;;;;;;;;5059721;28;19939;-79
2021/01/29 15:03:55;;;;;;;;;;;;;;;;;;5078684;28;19931;-78
2021/01/29 15:06:21;;;;;;;;;;;;;;;;;;5073658;28;19940;-78
2021/01/29 15:08:47;;;;;;;;;;;;;;;;;;5065961;28;20041;-79
2021/01/29 15:11:13;;;;;;;;;;;;;;;;;;5077298;28;19932;-79
2021/01/29 15:13:39;;;;;;;;;;;;;;;;;;5062457;28;20136;-80
2021/01/29 15:16:05;;;;;;;;;;;;;;;;;;5086651;28;20292;-78
2021/01/29 15:18:31;;;;;;;;;;;;;;;;;;5076475;28;19963;-78
2021/01/29 15:20:57;;;;;;;;;;;;;;;;;;5073348;28;19943;-78
2021/01/29 15:23:24;;;;;;;;;;;;;;;;;;5070700;28;19970;-77
2021/01/29 15:25:50;;;;;;;;;;;;;;;;;;5078878;28;20164;-78
2021/01/29 15:28:16;;;;;;;;;;;;;;;;;;5074543;28;19936;-80
2021/01/29 15:30:42;;;;;;;;;;;;;;;;;;5065811;28;19924;-77
2021/01/29 15:33:08;;;;;;;;;;;;;;;;;;5074348;28;19924;-78
2021/01/29 15:35:34;;;;;;;;;;;;;;;;;;5074663;28;19947;-78
2021/01/29 15:38:00;;;;;;;;;;;;;;;;;;5082477;28;19925;-78
2021/01/29 15:40:26;;;;;;;;;;;;;;;;;;5080552;28;19977;-77
2021/01/29 15:42:52;;;;;;;;;;;;;;;;;;5072637;28;19932;-79
2021/01/29 15:45:18;;;;;;;;;;;;;;;;;;5075715;28;19927;-79
2021/01/29 15:47:44;;;;;;;;;;;;;;;;;;5065794;28;20383;-78
2021/01/29 15:50:10;;;;;;;;;;;;;;;;;;5081243;28;19931;-79
2021/01/29 15:52:36;;;;;;;;;;;;;;;;;;5066401;28;20031;-79
2021/01/29 15:55:02;;;;;;;;;;;;;;;;;;5074304;28;19929;-79
2021/01/29 15:57:28;;;;;;;;;;;;;;;;;;5071786;28;20318;-80
2021/01/29 15:59:54;;;;;;;;;;;;;;;;;;5082815;28;19931;-79
2021/01/29 16:02:20;;;;;;;;;;;;;;;;;;5067062;28;20339;-79
2021/01/29 16:04:46;;;;;;;;;;;;;;;;;;5072338;28;19931;-79
2021/01/29 16:07:12;;;;;;;;;;;;;;;;;;5073827;28;19932;-79
2021/01/29 16:09:38;;;;;;;;;;;;;;;;;;5086666;28;19932;-79
2021/01/29 16:12:04;;;;;;;;;;;;;;;;;;5090634;28;19932;-80
2021/01/29 16:14:30;;;;;;;;;;;;;;;;;;5086462;28;20388;-78
2021/01/29 16:16:56;;;;;;;;;;;;;;;;;;5077951;28;19924;-79
2021/01/29 16:19:23;;;;;;;;;;;;;;;;;;5086522;28;19924;-78
2021/01/29 16:21:50;;;;;;;;;;;;;;;;;;5080372;28;20011;-78
2021/01/29 16:24:16;;;;;;;;;;;;;;;;;;5085595;28;19932;-78
2021/01/29 16:26:42;;;;;;;;;;;;;;;;;;5087862;28;19935;-78
2021/01/29 16:29:08;;;;;;;;;;;;;;;;;;5103287;28;19928;-79
2021/01/29 16:31:33;;;;;;;;;;;;;;;;;;5101087;28;20038;-79
2021/01/29 16:33:59;;;;;;;;;;;;;;;;;;5083046;28;20309;-80
2021/01/29 16:36:26;;;;;;;;;;;;;;;;;;5092095;28;19931;-80